Etusivu
METAR-TAF:

METAR-TAF

Lentoasemat :

Meiringen, Sveitsi

Leveyspiiri: 46-44-25N, Pituuspiiri: 8-06-36E, korkeus merenpinnasta: 577 m

Tämänhetkinen sää

Tämä raportti tehtiin 29 minuuttia sitten, kello 03.50 UTC
tyyntä
Lämpötila 5°C
Kosteus 87%
Ilmanpaine 1027 hPa
Näkyvyys: 9000 m

METAR: LSMM 210350Z AUTO 00000KT 9000NDV NCD 05/03 Q1027 RMK

Aika: 06:19 (04:19 UTC)


TAF: puuttuu

Säähavainnot ja -ennusteet yli 4000 lentoasemalta (METAR- ja TAF-raportit).

Käytössä olevat sääasemat on merkitty karttaan keltaisilla ja punaisilla pisteillä.

Aseta hiiri pisteen päälle nähdäksesi sääaseman nimen.

Klikkaa sitten nähdäksesi säähavainnot ja -ennusteet.

Kartan vaihtaminen: klikkaa mustalla rastilla varustettuja vihreitä pisteitä, niin voit zoomata sisään; viivalla varustettua vihreää pistettä, niin voit zoomata ulos tai vihreitä nuolia, niin pääset viereisille kartoille.


METAR-TAF: